Altamira, Brazil
Current Conditions -  °F | °C
As of 6:00 PM on Sunday 23 Nov 2014 (Local Time) from SBHT Reporting Station
Clear Clear  
Wind Chill: 82°   Ceiling: Unl
Heat Index: 91°   Visibility: 6mi
Dew Point: 77°   Wind: 0mph
Humidity: 84%   Direction: NA
Pressure: 29.77"   Gusts: NA
Location:  3.2°S, 52.21°W
Report Text: SBHT 232100Z 00000KT CAVOK 28/25 Q1008
Loading
Personal Weather Stations






























Interactive Weather Map New forecast layout! Learn more

10-Day Weather Forecast

Advertisements
Track Severe Weather on mobile